sensor_id;sensor_type;location;lat;lon;timestamp;P1;durP1;ratioP1;P2;durP2;ratioP2
44438;SDS011;30145;48.874;10.186;2022-09-25T00:00:59;23.83;;;16.40;;
44438;SDS011;30145;48.874;10.186;2022-09-25T00:03:27;22.43;;;15.30;;
44438;SDS011;30145;48.874;10.186;2022-09-25T00:06:02;22.73;;;16.43;;
44438;SDS011;30145;48.874;10.186;2022-09-25T00:08:30;23.27;;;17.67;;
44438;SDS011;30145;48.874;10.186;2022-09-25T00:11:03;23.50;;;17.27;;
44438;SDS011;30145;48.874;10.186;2022-09-25T00:13:32;21.77;;;15.93;;
44438;SDS011;30145;48.874;10.186;2022-09-25T00:15:59;19.97;;;14.67;;
44438;SDS011;30145;48.874;10.186;2022-09-25T00:18:28;18.93;;;14.83;;
44438;SDS011;30145;48.874;10.186;2022-09-25T00:21:14;16.90;;;13.50;;
44438;SDS011;30145;48.874;10.186;2022-09-25T00:23:43;17.27;;;13.27;;
44438;SDS011;30145;48.874;10.186;2022-09-25T00:26:12;19.07;;;14.57;;
44438;SDS011;30145;48.874;10.186;2022-09-25T00:28:40;17.73;;;12.67;;
44438;SDS011;30145;48.874;10.186;2022-09-25T00:31:08;16.67;;;13.90;;
44438;SDS011;30145;48.874;10.186;2022-09-25T00:33:36;16.90;;;13.50;;
44438;SDS011;30145;48.874;10.186;2022-09-25T00:36:07;18.57;;;13.30;;
44438;SDS011;30145;48.874;10.186;2022-09-25T00:38:35;17.23;;;13.53;;
44438;SDS011;30145;48.874;10.186;2022-09-25T00:41:05;16.10;;;12.93;;
44438;SDS011;30145;48.874;10.186;2022-09-25T00:43:33;18.43;;;14.53;;
44438;SDS011;30145;48.874;10.186;2022-09-25T00:46:04;18.80;;;14.30;;
44438;SDS011;30145;48.874;10.186;2022-09-25T00:49:26;17.97;;;13.97;;
44438;SDS011;30145;48.874;10.186;2022-09-25T00:54:21;18.60;;;14.17;;
44438;SDS011;30145;48.874;10.186;2022-09-25T00:56:51;17.87;;;13.97;;
44438;SDS011;30145;48.874;10.186;2022-09-25T00:59:21;21.30;;;14.33;;
44438;SDS011;30145;48.874;10.186;2022-09-25T01:01:51;17.03;;;12.97;;
44438;SDS011;30145;48.874;10.186;2022-09-25T01:04:18;15.47;;;12.07;;
44438;SDS011;30145;48.874;10.186;2022-09-25T01:06:49;15.17;;;12.17;;
44438;SDS011;30145;48.874;10.186;2022-09-25T01:09:16;17.67;;;13.40;;
44438;SDS011;30145;48.874;10.186;2022-09-25T01:11:43;16.43;;;12.90;;
44438;SDS011;30145;48.874;10.186;2022-09-25T01:14:10;16.30;;;12.87;;
44438;SDS011;30145;48.874;10.186;2022-09-25T01:22:21;15.90;;;13.37;;
44438;SDS011;30145;48.874;10.186;2022-09-25T01:25:08;14.90;;;11.53;;
44438;SDS011;30145;48.874;10.186;2022-09-25T01:27:59;16.53;;;11.53;;
44438;SDS011;30145;48.874;10.186;2022-09-25T01:30:48;15.33;;;12.47;;
44438;SDS011;30145;48.874;10.186;2022-09-25T01:33:17;17.97;;;14.43;;
44438;SDS011;30145;48.874;10.186;2022-09-25T01:38:26;22.40;;;17.60;;
44438;SDS011;30145;48.874;10.186;2022-09-25T01:41:07;19.37;;;15.00;;
44438;SDS011;30145;48.874;10.186;2022-09-25T01:43:37;20.47;;;15.30;;
44438;SDS011;30145;48.874;10.186;2022-09-25T01:46:29;18.80;;;14.97;;
44438;SDS011;30145;48.874;10.186;2022-09-25T01:49:00;17.73;;;13.70;;
44438;SDS011;30145;48.874;10.186;2022-09-25T01:51:33;18.17;;;13.90;;
44438;SDS011;30145;48.874;10.186;2022-09-25T01:54:04;20.03;;;15.00;;
44438;SDS011;30145;48.874;10.186;2022-09-25T01:56:38;20.67;;;14.83;;
44438;SDS011;30145;48.874;10.186;2022-09-25T01:59:12;15.10;;;12.57;;
44438;SDS011;30145;48.874;10.186;2022-09-25T02:01:44;18.80;;;13.97;;
44438;SDS011;30145;48.874;10.186;2022-09-25T02:04:17;17.03;;;13.07;;
44438;SDS011;30145;48.874;10.186;2022-09-25T02:06:48;17.07;;;13.00;;
44438;SDS011;30145;48.874;10.186;2022-09-25T02:09:36;18.27;;;13.37;;
44438;SDS011;30145;48.874;10.186;2022-09-25T02:12:11;17.00;;;13.30;;
44438;SDS011;30145;48.874;10.186;2022-09-25T02:14:42;16.60;;;12.83;;
44438;SDS011;30145;48.874;10.186;2022-09-25T02:17:14;17.10;;;13.50;;
44438;SDS011;30145;48.874;10.186;2022-09-25T02:20:05;19.63;;;15.30;;
44438;SDS011;30145;48.874;10.186;2022-09-25T02:22:51;21.47;;;15.87;;
44438;SDS011;30145;48.874;10.186;2022-09-25T02:25:24;24.50;;;17.27;;
44438;SDS011;30145;48.874;10.186;2022-09-25T02:27:56;21.77;;;16.67;;
44438;SDS011;30145;48.874;10.186;2022-09-25T02:30:23;21.48;;;15.07;;
44438;SDS011;30145;48.874;10.186;2022-09-25T02:32:51;19.40;;;15.27;;
44438;SDS011;30145;48.874;10.186;2022-09-25T02:35:24;20.03;;;14.80;;
44438;SDS011;30145;48.874;10.186;2022-09-25T02:37:52;19.73;;;14.87;;
44438;SDS011;30145;48.874;10.186;2022-09-25T02:40:20;19.07;;;15.03;;
44438;SDS011;30145;48.874;10.186;2022-09-25T02:50:51;16.90;;;12.80;;
44438;SDS011;30145;48.874;10.186;2022-09-25T02:53:29;18.33;;;12.87;;
44438;SDS011;30145;48.874;10.186;2022-09-25T02:56:20;15.30;;;12.53;;
44438;SDS011;30145;48.874;10.186;2022-09-25T02:58:58;16.10;;;12.40;;
44438;SDS011;30145;48.874;10.186;2022-09-25T03:01:28;18.00;;;13.77;;
44438;SDS011;30145;48.874;10.186;2022-09-25T03:03:57;22.07;;;15.40;;
44438;SDS011;30145;48.874;10.186;2022-09-25T03:06:25;22.10;;;15.70;;
44438;SDS011;30145;48.874;10.186;2022-09-25T03:08:54;21.17;;;14.60;;
44438;SDS011;30145;48.874;10.186;2022-09-25T03:11:22;21.23;;;16.07;;
44438;SDS011;30145;48.874;10.186;2022-09-25T03:13:56;18.70;;;15.00;;
44438;SDS011;30145;48.874;10.186;2022-09-25T03:16:30;21.13;;;15.97;;
44438;SDS011;30145;48.874;10.186;2022-09-25T03:19:10;23.73;;;16.23;;
44438;SDS011;30145;48.874;10.186;2022-09-25T03:21:37;22.13;;;15.87;;
44438;SDS011;30145;48.874;10.186;2022-09-25T03:24:04;19.37;;;14.27;;
44438;SDS011;30145;48.874;10.186;2022-09-25T03:26:31;21.33;;;14.53;;
44438;SDS011;30145;48.874;10.186;2022-09-25T03:28:59;17.53;;;14.30;;
44438;SDS011;30145;48.874;10.186;2022-09-25T03:31:28;18.87;;;13.93;;
44438;SDS011;30145;48.874;10.186;2022-09-25T03:33:55;17.03;;;12.73;;
44438;SDS011;30145;48.874;10.186;2022-09-25T03:36:24;16.87;;;13.27;;
44438;SDS011;30145;48.874;10.186;2022-09-25T03:38:53;14.93;;;13.07;;
44438;SDS011;30145;48.874;10.186;2022-09-25T03:41:26;13.37;;;11.23;;
44438;SDS011;30145;48.874;10.186;2022-09-25T03:43:55;11.07;;;9.70;;
44438;SDS011;30145;48.874;10.186;2022-09-25T03:46:27;14.97;;;11.47;;
44438;SDS011;30145;48.874;10.186;2022-09-25T03:48:56;14.47;;;11.57;;
44438;SDS011;30145;48.874;10.186;2022-09-25T03:51:24;12.80;;;10.03;;
44438;SDS011;30145;48.874;10.186;2022-09-25T03:53:52;14.80;;;10.33;;
44438;SDS011;30145;48.874;10.186;2022-09-25T03:56:21;11.13;;;9.37;;
44438;SDS011;30145;48.874;10.186;2022-09-25T03:58:50;15.57;;;10.73;;
44438;SDS011;30145;48.874;10.186;2022-09-25T04:01:19;12.37;;;10.27;;
44438;SDS011;30145;48.874;10.186;2022-09-25T04:03:47;12.23;;;10.17;;
44438;SDS011;30145;48.874;10.186;2022-09-25T04:06:17;13.73;;;10.97;;
44438;SDS011;30145;48.874;10.186;2022-09-25T04:08:46;12.53;;;10.47;;
44438;SDS011;30145;48.874;10.186;2022-09-25T04:11:17;12.13;;;9.60;;
44438;SDS011;30145;48.874;10.186;2022-09-25T04:13:45;15.03;;;11.30;;
44438;SDS011;30145;48.874;10.186;2022-09-25T04:16:13;12.90;;;10.63;;
44438;SDS011;30145;48.874;10.186;2022-09-25T04:18:42;13.37;;;10.83;;
44438;SDS011;30145;48.874;10.186;2022-09-25T04:21:11;14.60;;;11.63;;
44438;SDS011;30145;48.874;10.186;2022-09-25T04:23:39;14.70;;;10.73;;
44438;SDS011;30145;48.874;10.186;2022-09-25T04:26:07;12.63;;;10.23;;
44438;SDS011;30145;48.874;10.186;2022-09-25T04:28:35;12.20;;;9.50;;
44438;SDS011;30145;48.874;10.186;2022-09-25T04:31:02;11.40;;;9.77;;
44438;SDS011;30145;48.874;10.186;2022-09-25T04:33:29;12.03;;;9.47;;
44438;SDS011;30145;48.874;10.186;2022-09-25T04:36:12;11.13;;;9.00;;
44438;SDS011;30145;48.874;10.186;2022-09-25T04:38:40;12.90;;;9.53;;
44438;SDS011;30145;48.874;10.186;2022-09-25T04:41:07;12.43;;;10.27;;
44438;SDS011;30145;48.874;10.186;2022-09-25T04:43:35;10.60;;;9.37;;
44438;SDS011;30145;48.874;10.186;2022-09-25T04:46:05;12.67;;;10.97;;
44438;SDS011;30145;48.874;10.186;2022-09-25T04:48:34;13.60;;;11.07;;
44438;SDS011;30145;48.874;10.186;2022-09-25T04:51:02;10.80;;;9.67;;
44438;SDS011;30145;48.874;10.186;2022-09-25T04:53:30;12.60;;;10.27;;
44438;SDS011;30145;48.874;10.186;2022-09-25T04:56:02;13.10;;;10.50;;
44438;SDS011;30145;48.874;10.186;2022-09-25T04:58:35;13.83;;;10.47;;
44438;SDS011;30145;48.874;10.186;2022-09-25T05:01:03;12.10;;;9.63;;
44438;SDS011;30145;48.874;10.186;2022-09-25T05:03:32;11.60;;;9.90;;
44438;SDS011;30145;48.874;10.186;2022-09-25T05:05:59;12.27;;;10.80;;
44438;SDS011;30145;48.874;10.186;2022-09-25T05:08:26;15.50;;;11.53;;
44438;SDS011;30145;48.874;10.186;2022-09-25T05:10:53;13.20;;;10.70;;
44438;SDS011;30145;48.874;10.186;2022-09-25T05:13:21;20.00;;;12.10;;
44438;SDS011;30145;48.874;10.186;2022-09-25T05:15:48;15.30;;;11.77;;
44438;SDS011;30145;48.874;10.186;2022-09-25T05:18:17;12.40;;;11.07;;
44438;SDS011;30145;48.874;10.186;2022-09-25T05:20:47;16.07;;;12.13;;
44438;SDS011;30145;48.874;10.186;2022-09-25T05:23:15;14.67;;;11.57;;
44438;SDS011;30145;48.874;10.186;2022-09-25T05:25:42;16.50;;;13.03;;
44438;SDS011;30145;48.874;10.186;2022-09-25T05:28:09;13.63;;;11.43;;
44438;SDS011;30145;48.874;10.186;2022-09-25T05:30:37;13.30;;;11.03;;
44438;SDS011;30145;48.874;10.186;2022-09-25T05:33:05;14.33;;;11.67;;
44438;SDS011;30145;48.874;10.186;2022-09-25T05:35:33;14.83;;;12.23;;
44438;SDS011;30145;48.874;10.186;2022-09-25T05:38:00;13.87;;;11.90;;
44438;SDS011;30145;48.874;10.186;2022-09-25T05:40:28;14.60;;;12.03;;
44438;SDS011;30145;48.874;10.186;2022-09-25T05:42:55;14.03;;;11.93;;
44438;SDS011;30145;48.874;10.186;2022-09-25T05:45:22;14.73;;;12.40;;
44438;SDS011;30145;48.874;10.186;2022-09-25T05:48:02;17.57;;;12.83;;
44438;SDS011;30145;48.874;10.186;2022-09-25T05:50:30;16.33;;;12.63;;
44438;SDS011;30145;48.874;10.186;2022-09-25T05:52:59;14.17;;;12.37;;
44438;SDS011;30145;48.874;10.186;2022-09-25T05:55:28;13.83;;;11.87;;
44438;SDS011;30145;48.874;10.186;2022-09-25T05:58:01;15.50;;;11.80;;
44438;SDS011;30145;48.874;10.186;2022-09-25T06:00:29;14.50;;;11.37;;
44438;SDS011;30145;48.874;10.186;2022-09-25T06:02:59;14.27;;;11.97;;
44438;SDS011;30145;48.874;10.186;2022-09-25T06:05:26;14.07;;;11.93;;
44438;SDS011;30145;48.874;10.186;2022-09-25T06:07:53;16.33;;;13.30;;
44438;SDS011;30145;48.874;10.186;2022-09-25T06:10:21;16.27;;;11.77;;
44438;SDS011;30145;48.874;10.186;2022-09-25T06:12:48;14.60;;;12.57;;
44438;SDS011;30145;48.874;10.186;2022-09-25T06:15:15;14.63;;;12.03;;
44438;SDS011;30145;48.874;10.186;2022-09-25T06:17:42;16.47;;;13.53;;
44438;SDS011;30145;48.874;10.186;2022-09-25T06:20:09;14.97;;;12.90;;
44438;SDS011;30145;48.874;10.186;2022-09-25T06:22:40;16.67;;;13.63;;
44438;SDS011;30145;48.874;10.186;2022-09-25T06:25:07;16.00;;;13.63;;
44438;SDS011;30145;48.874;10.186;2022-09-25T06:27:35;14.10;;;11.40;;
44438;SDS011;30145;48.874;10.186;2022-09-25T06:30:03;13.20;;;10.83;;
44438;SDS011;30145;48.874;10.186;2022-09-25T06:32:30;14.57;;;12.80;;
44438;SDS011;30145;48.874;10.186;2022-09-25T06:34:57;12.33;;;11.03;;
44438;SDS011;30145;48.874;10.186;2022-09-25T06:37:24;17.07;;;13.23;;
44438;SDS011;30145;48.874;10.186;2022-09-25T06:39:52;14.07;;;11.37;;
44438;SDS011;30145;48.874;10.186;2022-09-25T06:42:19;15.23;;;12.90;;
44438;SDS011;30145;48.874;10.186;2022-09-25T06:44:46;13.77;;;12.10;;
44438;SDS011;30145;48.874;10.186;2022-09-25T06:47:13;13.67;;;11.73;;
44438;SDS011;30145;48.874;10.186;2022-09-25T06:49:43;12.10;;;10.80;;
44438;SDS011;30145;48.874;10.186;2022-09-25T06:52:11;13.57;;;10.73;;
44438;SDS011;30145;48.874;10.186;2022-09-25T06:54:38;13.67;;;12.27;;
44438;SDS011;30145;48.874;10.186;2022-09-25T06:57:08;13.03;;;11.67;;
44438;SDS011;30145;48.874;10.186;2022-09-25T06:59:37;13.30;;;11.50;;
44438;SDS011;30145;48.874;10.186;2022-09-25T07:02:04;12.17;;;10.43;;
44438;SDS011;30145;48.874;10.186;2022-09-25T07:04:50;13.33;;;11.23;;
44438;SDS011;30145;48.874;10.186;2022-09-25T07:07:17;12.83;;;10.77;;
44438;SDS011;30145;48.874;10.186;2022-09-25T07:09:46;11.90;;;10.60;;
44438;SDS011;30145;48.874;10.186;2022-09-25T07:12:14;10.67;;;9.07;;
44438;SDS011;30145;48.874;10.186;2022-09-25T07:14:43;10.70;;;9.50;;
44438;SDS011;30145;48.874;10.186;2022-09-25T07:17:13;10.83;;;9.73;;
44438;SDS011;30145;48.874;10.186;2022-09-25T07:19:40;11.17;;;9.97;;
44438;SDS011;30145;48.874;10.186;2022-09-25T07:22:07;11.87;;;10.50;;
44438;SDS011;30145;48.874;10.186;2022-09-25T07:24:34;11.07;;;9.97;;
44438;SDS011;30145;48.874;10.186;2022-09-25T07:27:01;14.60;;;11.93;;
44438;SDS011;30145;48.874;10.186;2022-09-25T07:29:28;14.30;;;12.17;;
44438;SDS011;30145;48.874;10.186;2022-09-25T07:31:55;13.57;;;11.97;;
44438;SDS011;30145;48.874;10.186;2022-09-25T07:34:22;13.27;;;11.87;;
44438;SDS011;30145;48.874;10.186;2022-09-25T07:36:49;12.90;;;11.43;;
44438;SDS011;30145;48.874;10.186;2022-09-25T07:39:18;14.03;;;12.10;;
44438;SDS011;30145;48.874;10.186;2022-09-25T07:41:45;12.70;;;11.40;;
44438;SDS011;30145;48.874;10.186;2022-09-25T07:44:13;13.47;;;11.47;;
44438;SDS011;30145;48.874;10.186;2022-09-25T07:46:53;12.67;;;11.07;;
44438;SDS011;30145;48.874;10.186;2022-09-25T07:49:20;13.53;;;11.77;;
44438;SDS011;30145;48.874;10.186;2022-09-25T07:51:47;16.27;;;10.87;;
44438;SDS011;30145;48.874;10.186;2022-09-25T07:54:14;13.53;;;11.80;;
44438;SDS011;30145;48.874;10.186;2022-09-25T07:56:41;10.57;;;9.07;;
44438;SDS011;30145;48.874;10.186;2022-09-25T07:59:08;11.57;;;10.37;;
44438;SDS011;30145;48.874;10.186;2022-09-25T08:01:35;9.17;;;8.27;;
44438;SDS011;30145;48.874;10.186;2022-09-25T08:04:05;8.67;;;7.77;;
44438;SDS011;30145;48.874;10.186;2022-09-25T08:06:35;10.10;;;7.77;;
44438;SDS011;30145;48.874;10.186;2022-09-25T08:09:02;8.30;;;6.80;;
44438;SDS011;30145;48.874;10.186;2022-09-25T08:11:32;7.27;;;6.40;;
44438;SDS011;30145;48.874;10.186;2022-09-25T08:13:59;7.27;;;6.50;;
44438;SDS011;30145;48.874;10.186;2022-09-25T08:16:27;8.60;;;7.00;;
44438;SDS011;30145;48.874;10.186;2022-09-25T08:18:54;8.57;;;7.40;;
44438;SDS011;30145;48.874;10.186;2022-09-25T08:21:21;8.80;;;7.87;;
44438;SDS011;30145;48.874;10.186;2022-09-25T08:23:49;8.40;;;7.50;;
44438;SDS011;30145;48.874;10.186;2022-09-25T08:26:18;8.60;;;7.70;;
44438;SDS011;30145;48.874;10.186;2022-09-25T08:28:49;8.67;;;7.80;;
44438;SDS011;30145;48.874;10.186;2022-09-25T08:31:17;9.83;;;8.40;;
44438;SDS011;30145;48.874;10.186;2022-09-25T08:33:45;8.83;;;7.93;;
44438;SDS011;30145;48.874;10.186;2022-09-25T08:36:13;11.37;;;8.90;;
44438;SDS011;30145;48.874;10.186;2022-09-25T08:38:42;9.80;;;8.77;;
44438;SDS011;30145;48.874;10.186;2022-09-25T08:41:26;9.57;;;8.57;;
44438;SDS011;30145;48.874;10.186;2022-09-25T08:44:11;11.00;;;9.47;;
44438;SDS011;30145;48.874;10.186;2022-09-25T08:49:41;10.70;;;9.17;;
44438;SDS011;30145;48.874;10.186;2022-09-25T08:52:13;10.73;;;9.00;;
44438;SDS011;30145;48.874;10.186;2022-09-25T08:54:42;11.27;;;9.70;;
44438;SDS011;30145;48.874;10.186;2022-09-25T08:57:16;10.47;;;9.17;;
44438;SDS011;30145;48.874;10.186;2022-09-25T08:59:51;9.07;;;8.17;;
44438;SDS011;30145;48.874;10.186;2022-09-25T09:02:27;9.87;;;7.90;;
44438;SDS011;30145;48.874;10.186;2022-09-25T09:05:00;11.50;;;8.83;;
44438;SDS011;30145;48.874;10.186;2022-09-25T09:07:33;10.17;;;8.57;;
44438;SDS011;30145;48.874;10.186;2022-09-25T09:13:17;10.53;;;8.27;;
44438;SDS011;30145;48.874;10.186;2022-09-25T09:15:46;9.90;;;8.90;;
44438;SDS011;30145;48.874;10.186;2022-09-25T09:20:49;8.77;;;7.87;;
44438;SDS011;30145;48.874;10.186;2022-09-25T09:23:19;8.43;;;7.53;;
44438;SDS011;30145;48.874;10.186;2022-09-25T09:31:18;7.87;;;6.67;;
44438;SDS011;30145;48.874;10.186;2022-09-25T09:39:28;9.53;;;7.90;;
44438;SDS011;30145;48.874;10.186;2022-09-25T09:42:05;8.77;;;7.27;;
44438;SDS011;30145;48.874;10.186;2022-09-25T09:44:52;8.67;;;7.60;;
44438;SDS011;30145;48.874;10.186;2022-09-25T09:52:55;10.03;;;7.73;;
44438;SDS011;30145;48.874;10.186;2022-09-25T09:55:37;10.20;;;8.23;;
44438;SDS011;30145;48.874;10.186;2022-09-25T09:58:14;9.57;;;8.10;;
44438;SDS011;30145;48.874;10.186;2022-09-25T10:00:49;9.37;;;8.03;;
44438;SDS011;30145;48.874;10.186;2022-09-25T10:03:19;9.77;;;8.60;;
44438;SDS011;30145;48.874;10.186;2022-09-25T10:05:52;10.10;;;7.90;;
44438;SDS011;30145;48.874;10.186;2022-09-25T10:08:21;12.17;;;8.53;;
44438;SDS011;30145;48.874;10.186;2022-09-25T10:10:52;8.90;;;7.50;;
44438;SDS011;30145;48.874;10.186;2022-09-25T10:13:29;9.23;;;7.90;;
44438;SDS011;30145;48.874;10.186;2022-09-25T10:18:40;8.43;;;6.80;;
44438;SDS011;30145;48.874;10.186;2022-09-25T10:21:52;7.40;;;6.63;;
44438;SDS011;30145;48.874;10.186;2022-09-25T10:27:33;13.17;;;9.53;;
44438;SDS011;30145;48.874;10.186;2022-09-25T10:30:15;9.67;;;7.53;;
44438;SDS011;30145;48.874;10.186;2022-09-25T10:35:40;7.10;;;5.20;;
44438;SDS011;30145;48.874;10.186;2022-09-25T10:38:42;8.40;;;7.50;;
44438;SDS011;30145;48.874;10.186;2022-09-25T10:41:39;9.77;;;7.87;;
44438;SDS011;30145;48.874;10.186;2022-09-25T10:44:18;7.50;;;6.30;;
44438;SDS011;30145;48.874;10.186;2022-09-25T10:46:47;8.13;;;6.90;;
44438;SDS011;30145;48.874;10.186;2022-09-25T10:49:43;9.10;;;6.83;;
44438;SDS011;30145;48.874;10.186;2022-09-25T10:52:52;7.60;;;6.73;;
44438;SDS011;30145;48.874;10.186;2022-09-25T10:55:26;7.77;;;6.73;;
44438;SDS011;30145;48.874;10.186;2022-09-25T10:57:57;7.30;;;6.30;;
44438;SDS011;30145;48.874;10.186;2022-09-25T11:00:39;7.73;;;6.60;;
44438;SDS011;30145;48.874;10.186;2022-09-25T11:03:13;8.27;;;5.73;;
44438;SDS011;30145;48.874;10.186;2022-09-25T11:06:04;7.03;;;6.30;;
44438;SDS011;30145;48.874;10.186;2022-09-25T11:08:35;8.60;;;6.60;;
44438;SDS011;30145;48.874;10.186;2022-09-25T11:11:04;8.67;;;6.40;;
44438;SDS011;30145;48.874;10.186;2022-09-25T11:13:47;8.10;;;5.90;;
44438;SDS011;30145;48.874;10.186;2022-09-25T11:16:15;6.00;;;5.07;;
44438;SDS011;30145;48.874;10.186;2022-09-25T11:18:50;5.90;;;4.90;;
44438;SDS011;30145;48.874;10.186;2022-09-25T11:21:24;5.97;;;4.90;;
44438;SDS011;30145;48.874;10.186;2022-09-25T11:27:02;4.83;;;4.33;;
44438;SDS011;30145;48.874;10.186;2022-09-25T11:32:49;4.70;;;3.77;;
44438;SDS011;30145;48.874;10.186;2022-09-25T11:38:35;5.53;;;3.77;;
44438;SDS011;30145;48.874;10.186;2022-09-25T11:41:43;3.93;;;3.57;;
44438;SDS011;30145;48.874;10.186;2022-09-25T11:44:30;6.93;;;3.30;;
44438;SDS011;30145;48.874;10.186;2022-09-25T11:47:12;3.53;;;3.23;;
44438;SDS011;30145;48.874;10.186;2022-09-25T11:49:43;4.47;;;3.40;;
44438;SDS011;30145;48.874;10.186;2022-09-25T11:54:55;5.10;;;3.70;;
44438;SDS011;30145;48.874;10.186;2022-09-25T12:09:14;5.30;;;4.33;;
44438;SDS011;30145;48.874;10.186;2022-09-25T12:17:18;8.33;;;4.97;;
44438;SDS011;30145;48.874;10.186;2022-09-25T12:19:49;6.53;;;5.40;;
44438;SDS011;30145;48.874;10.186;2022-09-25T12:30:28;6.67;;;5.80;;
44438;SDS011;30145;48.874;10.186;2022-09-25T12:36:27;8.30;;;6.90;;
44438;SDS011;30145;48.874;10.186;2022-09-25T12:44:19;7.13;;;6.30;;
44438;SDS011;30145;48.874;10.186;2022-09-25T12:47:03;7.53;;;6.07;;
44438;SDS011;30145;48.874;10.186;2022-09-25T12:49:40;8.10;;;6.23;;
44438;SDS011;30145;48.874;10.186;2022-09-25T12:52:14;7.57;;;6.77;;
44438;SDS011;30145;48.874;10.186;2022-09-25T12:54:48;7.03;;;6.23;;
44438;SDS011;30145;48.874;10.186;2022-09-25T12:57:24;7.70;;;6.60;;
44438;SDS011;30145;48.874;10.186;2022-09-25T12:59:55;7.80;;;6.43;;
44438;SDS011;30145;48.874;10.186;2022-09-25T13:02:34;9.73;;;6.90;;
44438;SDS011;30145;48.874;10.186;2022-09-25T13:10:40;9.40;;;7.87;;
44438;SDS011;30145;48.874;10.186;2022-09-25T13:13:12;7.60;;;6.83;;
44438;SDS011;30145;48.874;10.186;2022-09-25T13:15:49;10.57;;;8.30;;
44438;SDS011;30145;48.874;10.186;2022-09-25T13:18:19;13.07;;;9.10;;
44438;SDS011;30145;48.874;10.186;2022-09-25T13:20:54;11.33;;;8.63;;
44438;SDS011;30145;48.874;10.186;2022-09-25T13:23:26;10.60;;;7.60;;
44438;SDS011;30145;48.874;10.186;2022-09-25T13:26:18;11.30;;;8.03;;
44438;SDS011;30145;48.874;10.186;2022-09-25T13:29:02;8.63;;;7.70;;
44438;SDS011;30145;48.874;10.186;2022-09-25T13:31:33;9.83;;;7.63;;
44438;SDS011;30145;48.874;10.186;2022-09-25T13:34:03;12.30;;;7.73;;
44438;SDS011;30145;48.874;10.186;2022-09-25T13:42:11;8.17;;;7.37;;
44438;SDS011;30145;48.874;10.186;2022-09-25T13:53:23;8.93;;;7.37;;
44438;SDS011;30145;48.874;10.186;2022-09-25T14:00:51;10.70;;;7.87;;
44438;SDS011;30145;48.874;10.186;2022-09-25T14:06:11;10.10;;;8.23;;
44438;SDS011;30145;48.874;10.186;2022-09-25T14:08:43;9.63;;;8.63;;
44438;SDS011;30145;48.874;10.186;2022-09-25T14:11:11;11.87;;;8.40;;
44438;SDS011;30145;48.874;10.186;2022-09-25T14:13:39;11.77;;;8.40;;
44438;SDS011;30145;48.874;10.186;2022-09-25T14:16:17;10.50;;;7.83;;
44438;SDS011;30145;48.874;10.186;2022-09-25T14:18:48;9.30;;;8.23;;
44438;SDS011;30145;48.874;10.186;2022-09-25T14:21:19;10.97;;;9.00;;
44438;SDS011;30145;48.874;10.186;2022-09-25T14:23:48;10.70;;;8.20;;
44438;SDS011;30145;48.874;10.186;2022-09-25T14:26:21;10.00;;;8.40;;
44438;SDS011;30145;48.874;10.186;2022-09-25T14:28:52;16.20;;;8.60;;
44438;SDS011;30145;48.874;10.186;2022-09-25T14:39:26;10.87;;;8.43;;
44438;SDS011;30145;48.874;10.186;2022-09-25T14:46:52;11.83;;;8.70;;
44438;SDS011;30145;48.874;10.186;2022-09-25T14:51:55;14.33;;;10.53;;
44438;SDS011;30145;48.874;10.186;2022-09-25T14:54:24;11.63;;;8.80;;
44438;SDS011;30145;48.874;10.186;2022-09-25T14:56:56;11.87;;;7.87;;
44438;SDS011;30145;48.874;10.186;2022-09-25T14:59:39;10.70;;;8.77;;
44438;SDS011;30145;48.874;10.186;2022-09-25T15:04:56;10.60;;;7.70;;
44438;SDS011;30145;48.874;10.186;2022-09-25T15:07:24;10.83;;;8.73;;
44438;SDS011;30145;48.874;10.186;2022-09-25T15:09:53;11.70;;;8.60;;
44438;SDS011;30145;48.874;10.186;2022-09-25T15:14:58;10.33;;;9.00;;
44438;SDS011;30145;48.874;10.186;2022-09-25T15:17:51;11.87;;;9.53;;
44438;SDS011;30145;48.874;10.186;2022-09-25T15:20:21;11.47;;;9.20;;
44438;SDS011;30145;48.874;10.186;2022-09-25T15:25:30;16.40;;;9.77;;
44438;SDS011;30145;48.874;10.186;2022-09-25T15:27:59;11.33;;;9.57;;
44438;SDS011;30145;48.874;10.186;2022-09-25T15:30:27;11.37;;;9.50;;
44438;SDS011;30145;48.874;10.186;2022-09-25T15:32:54;11.30;;;9.63;;
44438;SDS011;30145;48.874;10.186;2022-09-25T15:35:28;10.73;;;8.30;;
44438;SDS011;30145;48.874;10.186;2022-09-25T15:38:09;11.30;;;9.07;;
44438;SDS011;30145;48.874;10.186;2022-09-25T15:40:37;11.17;;;9.77;;
44438;SDS011;30145;48.874;10.186;2022-09-25T15:43:09;12.60;;;9.73;;
44438;SDS011;30145;48.874;10.186;2022-09-25T15:45:57;10.47;;;8.97;;
44438;SDS011;30145;48.874;10.186;2022-09-25T15:49:00;11.77;;;8.77;;
44438;SDS011;30145;48.874;10.186;2022-09-25T15:51:29;12.33;;;9.03;;
44438;SDS011;30145;48.874;10.186;2022-09-25T15:54:00;12.20;;;9.73;;
44438;SDS011;30145;48.874;10.186;2022-09-25T15:56:51;12.20;;;9.13;;
44438;SDS011;30145;48.874;10.186;2022-09-25T15:59:32;12.23;;;10.03;;
44438;SDS011;30145;48.874;10.186;2022-09-25T16:02:11;12.50;;;10.00;;
44438;SDS011;30145;48.874;10.186;2022-09-25T16:05:02;11.00;;;9.23;;
44438;SDS011;30145;48.874;10.186;2022-09-25T16:07:32;12.03;;;9.33;;
44438;SDS011;30145;48.874;10.186;2022-09-25T16:10:04;10.17;;;8.30;;
44438;SDS011;30145;48.874;10.186;2022-09-25T16:12:32;11.03;;;8.80;;
44438;SDS011;30145;48.874;10.186;2022-09-25T16:15:48;9.43;;;8.23;;
44438;SDS011;30145;48.874;10.186;2022-09-25T16:17:59;9.90;;;8.43;;
44438;SDS011;30145;48.874;10.186;2022-09-25T16:21:36;10.90;;;8.73;;
44438;SDS011;30145;48.874;10.186;2022-09-25T16:24:03;10.07;;;7.50;;
44438;SDS011;30145;48.874;10.186;2022-09-25T16:26:35;8.33;;;6.67;;
44438;SDS011;30145;48.874;10.186;2022-09-25T16:29:06;11.67;;;8.27;;
44438;SDS011;30145;48.874;10.186;2022-09-25T16:31:50;6.90;;;5.87;;
44438;SDS011;30145;48.874;10.186;2022-09-25T16:34:20;6.10;;;5.50;;
44438;SDS011;30145;48.874;10.186;2022-09-25T16:36:54;6.00;;;5.30;;
44438;SDS011;30145;48.874;10.186;2022-09-25T16:39:28;5.30;;;4.80;;
44438;SDS011;30145;48.874;10.186;2022-09-25T16:42:28;5.20;;;4.43;;
44438;SDS011;30145;48.874;10.186;2022-09-25T16:45:38;4.40;;;4.00;;
44438;SDS011;30145;48.874;10.186;2022-09-25T16:47:41;8.13;;;6.80;;
44438;SDS011;30145;48.874;10.186;2022-09-25T16:50:11;8.60;;;6.50;;
44438;SDS011;30145;48.874;10.186;2022-09-25T16:53:07;6.83;;;6.10;;
44438;SDS011;30145;48.874;10.186;2022-09-25T16:55:39;5.37;;;4.70;;
44438;SDS011;30145;48.874;10.186;2022-09-25T16:58:12;4.73;;;4.27;;
44438;SDS011;30145;48.874;10.186;2022-09-25T17:00:40;4.93;;;4.43;;
44438;SDS011;30145;48.874;10.186;2022-09-25T17:03:08;4.97;;;4.33;;
44438;SDS011;30145;48.874;10.186;2022-09-25T17:05:35;4.73;;;4.13;;
44438;SDS011;30145;48.874;10.186;2022-09-25T17:08:23;4.90;;;4.50;;
44438;SDS011;30145;48.874;10.186;2022-09-25T17:10:50;4.47;;;4.17;;
44438;SDS011;30145;48.874;10.186;2022-09-25T17:13:20;5.07;;;4.57;;
44438;SDS011;30145;48.874;10.186;2022-09-25T17:15:53;5.87;;;5.30;;
44438;SDS011;30145;48.874;10.186;2022-09-25T17:18:22;5.17;;;4.67;;
44438;SDS011;30145;48.874;10.186;2022-09-25T17:20:55;5.50;;;4.70;;